Time;durP1;ratioP1;P1;durP2;ratioP2;P2;SDS_P1;SDS_P2;PMS_P1;PMS_P2;Temp;Humidity;BMP_temperature;BMP_pressure;BME280_temperature;BME280_humidity;BME280_pressure;Samples;Min_cycle;Max_cycle;Signal;HPM_P1;HPM_P2
2022/10/14 00:00:46;;;;;;;1.95;0.60;;;22.70;68.00;;;;;;4222351;27;20051;-42
2022/10/14 00:03:09;;;;;;;1.30;0.80;;;22.70;67.50;;;;;;4211219;27;20558;-44
2022/10/14 00:05:32;;;;;;;2.85;0.80;;;22.70;66.90;;;;;;4228911;27;20475;-43
2022/10/14 00:07:54;;;;;;;6.30;1.17;;;22.70;66.30;;;;;;4229207;27;20445;-43
2022/10/14 00:10:17;;;;;;;8.18;0.93;;;22.70;66.20;;;;;;4225666;27;20040;-44
2022/10/14 00:12:39;;;;;;;8.63;1.55;;;22.70;66.10;;;;;;4229703;27;20086;-43
2022/10/14 00:15:02;;;;;;;1.85;1.05;;;22.70;65.70;;;;;;4230637;27;20522;-44
2022/10/14 00:17:25;;;;;;;3.03;0.85;;;22.80;65.70;;;;;;4223770;27;20078;-43
2022/10/14 00:19:47;;;;;;;2.15;0.73;;;22.80;65.70;;;;;;4222957;27;20046;-42
2022/10/14 00:22:10;;;;;;;7.05;0.90;;;22.80;64.30;;;;;;4221097;27;20051;-45
2022/10/14 00:24:32;;;;;;;0.55;0.55;;;22.80;64.60;;;;;;4229873;27;20047;-43
2022/10/14 00:26:55;;;;;;;3.22;0.60;;;22.90;64.40;;;;;;4233121;27;20039;-40
2022/10/14 00:29:18;;;;;;;2.28;0.75;;;22.90;64.40;;;;;;4228923;27;20035;-47
2022/10/14 00:31:41;;;;;;;2.65;0.93;;;22.90;64.10;;;;;;4228363;27;20509;-40
2022/10/14 00:34:03;;;;;;;1.75;0.50;;;23.00;64.80;;;;;;4214924;27;20070;-41
2022/10/14 00:36:27;;;;;;;1.85;0.50;;;23.00;65.20;;;;;;4223821;27;20138;-41
2022/10/14 00:38:49;;;;;;;3.53;0.90;;;23.00;65.20;;;;;;4224683;27;20032;-40
2022/10/14 00:41:19;;;;;;;1.58;0.52;;;23.00;65.10;;;;;;4214855;27;20395;-41
2022/10/14 00:44:10;;;;;;;0.95;0.52;;;23.10;65.00;;;;;;4222634;27;20311;-41
2022/10/14 00:46:41;;;;;;;5.85;0.40;;;23.10;64.20;;;;;;4159340;28;20043;-40
2022/10/14 00:49:23;;;;;;;1.45;0.80;;;23.10;63.50;;;;;;4202596;28;20040;-40
2022/10/14 00:51:54;;;;;;;1.20;0.52;;;23.10;64.10;;;;;;4223961;27;20032;-43
2022/10/14 00:54:22;;;;;;;2.92;0.40;;;23.10;63.30;;;;;;4228570;27;20159;-45
2022/10/14 00:56:45;;;;;;;1.85;0.20;;;23.10;62.90;;;;;;4224847;27;20092;-39
2022/10/14 00:59:08;;;;;;;1.15;0.40;;;23.10;62.70;;;;;;4225978;27;20036;-43
2022/10/14 01:01:31;;;;;;;0.73;0.40;;;23.10;63.20;;;;;;4213515;27;20075;-46
2022/10/14 01:03:54;;;;;;;1.33;0.68;;;23.10;62.40;;;;;;4219754;27;20475;-41
2022/10/14 01:06:37;;;;;;;0.98;0.47;;;23.10;61.60;;;;;;4222180;27;20530;-41
2022/10/14 02:41:41;;;;;;;0.96;0.50;;;23.00;56.00;;;;;;5129124;22;3126735;-46
2022/10/14 02:44:05;;;;;;;0.45;0.30;;;23.00;56.90;;;;;;5224491;22;20053;-42
2022/10/14 02:46:28;;;;;;;1.48;0.70;;;23.00;56.20;;;;;;5212745;22;20138;-41
2022/10/14 02:48:51;;;;;;;0.40;0.40;;;23.00;56.20;;;;;;5209183;22;20015;-43
2022/10/14 02:51:13;;;;;;;0.40;0.40;;;23.00;55.20;;;;;;5207466;22;20053;-42
2022/10/14 02:53:36;;;;;;;1.75;0.40;;;23.00;55.60;;;;;;5208542;22;20015;-44
2022/10/14 02:55:59;;;;;;;0.30;0.30;;;23.00;55.40;;;;;;5208985;22;20149;-44
2022/10/14 02:58:21;;;;;;;5.60;0.68;;;23.00;54.80;;;;;;5207401;22;20365;-42
2022/10/14 03:00:44;;;;;;;3.53;0.60;;;23.00;56.10;;;;;;5197274;22;20476;-42
2022/10/14 03:03:06;;;;;;;1.23;0.50;;;23.10;56.10;;;;;;5209052;22;20022;-45
2022/10/14 03:05:29;;;;;;;1.52;0.50;;;23.10;56.60;;;;;;5183974;22;20073;-47
2022/10/14 03:07:51;;;;;;;1.10;0.47;;;23.20;55.80;;;;;;5184324;22;20069;-41
2022/10/14 03:10:14;;;;;;;1.52;0.47;;;23.30;56.80;;;;;;5184394;22;20016;-44
2022/10/14 03:12:36;;;;;;;1.08;0.60;;;23.30;56.80;;;;;;5187679;22;20007;-44
2022/10/14 03:14:59;;;;;;;0.80;0.50;;;23.40;56.80;;;;;;5185084;22;20498;-48
2022/10/14 03:17:21;;;;;;;0.35;0.35;;;23.40;55.90;;;;;;5193910;22;20012;-46
2022/10/14 03:19:44;;;;;;;4.00;0.60;;;23.40;55.50;;;;;;5191251;22;20067;-43
2022/10/14 03:22:06;;;;;;;0.30;0.30;;;23.50;55.40;;;;;;5194019;22;20015;-43
2022/10/14 03:24:29;;;;;;;0.45;0.40;;;23.50;56.20;;;;;;5192440;22;20015;-47
2022/10/14 03:26:51;;;;;;;0.95;0.30;;;23.60;56.50;;;;;;5192817;22;20046;-47
2022/10/14 03:29:14;;;;;;;1.80;0.60;;;23.60;55.00;;;;;;5193988;22;20086;-43
2022/10/14 03:31:36;;;;;;;0.50;0.43;;;23.60;54.30;;;;;;5194727;22;20088;-44
2022/10/14 03:33:59;;;;;;;1.75;0.60;;;23.70;56.50;;;;;;5192125;22;20121;-44
2022/10/14 03:36:22;;;;;;;0.40;0.40;;;23.80;55.80;;;;;;5193228;22;20054;-42
2022/10/14 03:38:45;;;;;;;0.73;0.60;;;23.80;56.10;;;;;;5191399;22;20015;-42
2022/10/14 03:41:07;;;;;;;0.53;0.40;;;23.80;56.30;;;;;;5193483;22;20022;-42
2022/10/14 03:43:30;;;;;;;0.57;0.40;;;23.90;56.40;;;;;;5193204;22;20019;-44
2022/10/14 03:45:53;;;;;;;4.97;0.60;;;23.90;56.30;;;;;;5192661;22;20023;-44
2022/10/14 03:48:15;;;;;;;1.80;0.50;;;24.00;55.90;;;;;;5193049;22;20008;-41
2022/10/14 03:50:38;;;;;;;1.73;0.55;;;24.00;56.10;;;;;;5192890;22;20019;-42
2022/10/14 03:53:00;;;;;;;1.27;0.47;;;24.00;56.60;;;;;;5190689;22;20531;-43
2022/10/14 03:55:24;;;;;;;1.30;0.60;;;24.10;56.80;;;;;;5190651;22;20020;-46
2022/10/14 03:57:46;;;;;;;8.20;1.20;;;24.20;56.50;;;;;;5187098;22;20399;-41
2022/10/14 04:00:13;;;;;;;3.22;0.43;;;24.30;56.40;;;;;;5189794;22;20598;-40
2022/10/14 04:02:35;;;;;;;0.85;0.60;;;24.30;56.20;;;;;;5196663;22;20016;-41
2022/10/14 04:04:58;;;;;;;1.38;0.60;;;24.40;56.60;;;;;;5192202;22;20026;-41
2022/10/14 04:07:21;;;;;;;0.73;0.40;;;24.40;56.00;;;;;;5195140;22;20112;-41
2022/10/14 04:09:43;;;;;;;2.25;0.35;;;24.50;55.80;;;;;;5182451;22;20476;-41
2022/10/14 04:12:06;;;;;;;1.77;0.50;;;24.60;55.60;;;;;;5187010;22;20022;-42
2022/10/14 04:14:29;;;;;;;2.35;0.60;;;24.60;55.10;;;;;;5185211;22;20023;-41
2022/10/14 04:16:52;;;;;;;2.95;0.50;;;24.70;55.50;;;;;;5187174;22;20022;-41
2022/10/14 04:19:14;;;;;;;0.70;0.30;;;24.70;55.30;;;;;;5187923;22;20007;-41
2022/10/14 04:21:36;;;;;;;2.33;0.40;;;24.80;55.00;;;;;;5185766;22;20023;-43
2022/10/14 04:23:59;;;;;;;2.47;0.50;;;24.90;54.90;;;;;;5185840;22;20015;-42
2022/10/14 04:26:21;;;;;;;0.52;0.30;;;24.90;54.70;;;;;;5187153;22;20031;-45
2022/10/14 04:28:44;;;;;;;0.73;0.50;;;25.00;54.40;;;;;;5187617;22;20015;-45
2022/10/14 04:31:07;;;;;;;0.70;0.40;;;25.10;53.90;;;;;;5184783;22;20026;-44
2022/10/14 06:04:18;;;;;;;2.03;0.77;;;25.40;51.80;;;;;;4201543;27;20426;-46
2022/10/14 06:06:41;;;;;;;11.60;1.05;;;25.30;52.30;;;;;;4192997;28;20128;-45
2022/10/14 06:09:04;;;;;;;1.38;0.57;;;25.30;52.70;;;;;;4186249;28;20279;-47
2022/10/14 06:11:26;;;;;;;1.23;0.40;;;25.30;52.60;;;;;;4175496;28;20037;-45
2022/10/14 06:13:49;;;;;;;2.42;0.77;;;25.30;52.80;;;;;;4178174;28;20053;-42
2022/10/14 06:16:11;;;;;;;9.70;0.80;;;25.40;52.30;;;;;;4179767;28;20048;-45
2022/10/14 06:18:35;;;;;;;6.80;0.90;;;25.40;52.30;;;;;;4187981;28;20504;-46
2022/10/14 06:20:57;;;;;;;3.58;0.85;;;25.40;52.50;;;;;;4197912;28;20039;-45
2022/10/14 06:23:20;;;;;;;3.25;0.55;;;25.40;52.80;;;;;;4188557;28;20044;-45
2022/10/14 06:25:43;;;;;;;8.23;0.82;;;25.40;53.10;;;;;;4195814;28;20064;-43
2022/10/14 06:28:06;;;;;;;1.35;0.68;;;25.50;52.90;;;;;;4196095;28;20483;-44
2022/10/14 06:30:28;;;;;;;1.47;0.83;;;25.60;53.00;;;;;;4196220;28;20151;-44
2022/10/14 06:32:53;;;;;;;3.85;0.85;;;25.70;53.30;;;;;;4188045;28;20450;-45
2022/10/14 06:35:15;;;;;;;5.00;0.70;;;25.70;53.30;;;;;;4191450;28;20090;-48
2022/10/14 06:37:38;;;;;;;2.28;1.00;;;25.80;53.40;;;;;;4191026;28;20040;-47
2022/10/14 06:40:01;;;;;;;1.27;0.95;;;25.80;53.20;;;;;;4180065;28;20033;-44
2022/10/14 06:42:23;;;;;;;1.95;1.13;;;25.80;52.90;;;;;;4183386;28;20070;-50
2022/10/14 06:44:46;;;;;;;3.53;1.10;;;25.80;52.50;;;;;;4194147;28;20373;-45
2022/10/14 06:47:08;;;;;;;2.55;1.23;;;25.80;51.50;;;;;;4188063;28;20068;-50
2022/10/14 06:49:31;;;;;;;2.55;1.35;;;25.80;50.80;;;;;;4186226;28;20049;-45
2022/10/14 06:51:53;;;;;;;3.40;1.08;;;25.80;50.50;;;;;;4185138;28;20044;-45
2022/10/14 06:54:16;;;;;;;3.67;1.20;;;25.80;50.40;;;;;;4175945;28;20028;-48
2022/10/14 06:56:39;;;;;;;4.90;1.70;;;25.70;49.90;;;;;;4182285;28;20079;-47
2022/10/14 06:59:02;;;;;;;2.78;0.95;;;25.70;50.40;;;;;;4192247;28;20040;-45
2022/10/14 07:01:25;;;;;;;1.80;1.00;;;25.80;50.40;;;;;;4186662;28;20501;-46
2022/10/14 07:03:47;;;;;;;4.78;1.52;;;25.80;50.10;;;;;;4186064;28;20521;-45
2022/10/14 07:06:10;;;;;;;1.67;1.08;;;25.80;50.20;;;;;;4186604;28;20039;-49
2022/10/14 07:08:33;;;;;;;3.40;0.90;;;25.80;50.50;;;;;;4184974;28;20037;-49
2022/10/14 07:10:55;;;;;;;11.20;1.55;;;25.80;50.80;;;;;;4180672;28;20035;-45
2022/10/14 07:13:18;;;;;;;5.32;1.23;;;25.80;51.40;;;;;;4185022;28;20072;-47
2022/10/14 07:15:40;;;;;;;1.88;0.77;;;25.80;51.10;;;;;;4164914;28;20481;-46
2022/10/14 07:18:05;;;;;;;1.98;1.10;;;25.70;51.50;;;;;;4169493;28;20067;-48
2022/10/14 07:20:27;;;;;;;7.20;1.27;;;25.60;51.80;;;;;;4161360;28;20052;-45
2022/10/14 07:22:53;;;;;;;6.07;1.13;;;25.60;51.70;;;;;;4166489;28;20053;-48
2022/10/14 07:25:16;;;;;;;4.30;1.25;;;25.60;51.70;;;;;;4169546;28;20037;-45
2022/10/14 07:27:39;;;;;;;3.40;1.00;;;25.60;52.30;;;;;;4175714;28;20146;-46
2022/10/14 07:30:01;;;;;;;3.88;1.00;;;25.50;52.00;;;;;;4168592;28;20445;-49
2022/10/14 07:32:24;;;;;;;3.50;0.95;;;25.50;51.80;;;;;;4180579;28;20064;-46
2022/10/14 07:34:47;;;;;;;3.30;1.20;;;25.50;52.20;;;;;;4180739;28;20036;-44
2022/10/14 07:37:09;;;;;;;2.13;0.70;;;25.50;52.00;;;;;;4181364;28;20043;-46
2022/10/14 07:39:32;;;;;;;2.70;1.00;;;25.40;51.20;;;;;;4176934;28;20037;-47
2022/10/14 07:41:55;;;;;;;1.25;0.77;;;25.40;52.10;;;;;;4167674;28;20129;-45
2022/10/14 07:44:19;;;;;;;2.17;0.90;;;25.40;51.60;;;;;;4173770;28;20051;-45
2022/10/14 07:46:44;;;;;;;3.40;1.15;;;25.40;51.20;;;;;;4176814;28;20436;-48
2022/10/14 07:49:18;;;;;;;1.48;0.82;;;25.40;50.80;;;;;;4172134;28;20607;-46
2022/10/14 07:51:41;;;;;;;0.95;0.82;;;25.30;51.40;;;;;;4163622;28;20043;-45
2022/10/14 07:54:09;;;;;;;2.65;0.65;;;25.30;50.90;;;;;;4167379;28;20404;-44
2022/10/14 07:56:33;;;;;;;2.70;1.25;;;25.30;50.80;;;;;;4171076;28;20412;-45
2022/10/14 07:58:57;;;;;;;2.17;1.00;;;25.20;50.30;;;;;;4169829;28;20358;-45
2022/10/14 08:01:19;;;;;;;;;;;25.20;50.90;;;;;;4170194;28;20094;-44
2022/10/14 08:03:43;;;;;;;1.10;0.73;;;25.20;50.90;;;;;;4165332;28;19921;-44
2022/10/14 08:06:06;;;;;;;1.77;1.25;;;25.20;51.00;;;;;;4169611;28;20039;-47
2022/10/14 08:08:29;;;;;;;1.55;1.00;;;25.10;50.70;;;;;;4164630;28;20084;-45
2022/10/14 08:11:10;;;;;;;2.33;0.80;;;25.10;50.50;;;;;;4173679;28;20037;-46
2022/10/14 08:13:33;;;;;;;2.45;1.10;;;25.10;50.10;;;;;;4158918;28;20098;-44
2022/10/14 08:15:55;;;;;;;1.67;0.88;;;25.10;49.50;;;;;;4160968;28;20032;-44
2022/10/14 08:18:18;;;;;;;1.73;0.95;;;25.00;49.60;;;;;;4161205;28;20073;-43
2022/10/14 08:20:40;;;;;;;1.77;0.70;;;25.00;49.70;;;;;;4158055;28;20037;-48
2022/10/14 08:23:03;;;;;;;1.40;0.80;;;25.00;50.20;;;;;;4167186;28;20077;-45
2022/10/14 08:25:26;;;;;;;1.25;0.80;;;24.90;49.20;;;;;;4165699;28;20656;-44
2022/10/14 08:27:50;;;;;;;1.23;0.73;;;24.90;49.50;;;;;;4170863;28;20417;-44
2022/10/14 08:30:12;;;;;;;0.70;0.50;;;24.90;49.10;;;;;;4164206;28;20449;-46
2022/10/14 08:32:35;;;;;;;0.73;0.55;;;24.80;49.60;;;;;;4165414;28;20112;-45
2022/10/14 08:34:57;;;;;;;1.30;0.70;;;24.80;49.40;;;;;;4164780;28;20033;-46
2022/10/14 08:37:20;;;;;;;1.98;1.00;;;24.80;49.20;;;;;;4164996;28;20035;-44
2022/10/14 08:39:46;;;;;;;1.50;0.82;;;24.80;49.30;;;;;;4172430;28;20402;-45
2022/10/14 08:42:30;;;;;;;1.45;0.70;;;24.70;48.90;;;;;;4167516;28;20037;-46
2022/10/14 08:45:07;;;;;;;1.95;0.80;;;24.70;48.90;;;;;;4156642;28;20118;-44
2022/10/14 08:47:40;;;;;;;2.13;0.80;;;24.70;48.90;;;;;;4152902;28;20044;-43
2022/10/14 08:50:21;;;;;;;1.40;0.57;;;24.70;47.40;;;;;;4158895;28;20085;-43
2022/10/14 08:52:50;;;;;;;1.50;0.68;;;24.60;48.10;;;;;;4161325;28;20077;-44
2022/10/14 08:55:21;;;;;;;1.00;0.65;;;24.60;48.10;;;;;;4169443;28;20473;-43
2022/10/14 08:57:54;;;;;;;1.67;1.00;;;24.60;48.50;;;;;;4163572;28;20115;-46
2022/10/14 09:00:19;;;;;;;0.98;0.65;;;24.50;48.30;;;;;;4162014;28;20064;-43
2022/10/14 09:02:48;;;;;;;1.33;0.65;;;24.50;48.50;;;;;;4160431;28;20749;-46
2022/10/14 09:05:20;;;;;;;1.38;0.82;;;24.50;48.80;;;;;;4167921;28;20142;-45
2022/10/14 09:07:44;;;;;;;1.30;0.90;;;24.50;48.90;;;;;;4165584;28;20067;-44
2022/10/14 09:10:11;;;;;;;2.15;1.05;;;24.50;48.90;;;;;;4177194;28;20416;-43
2022/10/14 09:12:35;;;;;;;1.23;0.80;;;24.40;49.00;;;;;;4174039;28;20656;-43
2022/10/14 09:15:16;;;;;;;1.33;0.88;;;24.40;49.00;;;;;;4168184;28;20048;-46
2022/10/14 09:17:45;;;;;;;1.13;0.70;;;24.40;49.00;;;;;;4177723;28;20043;-43
2022/10/14 09:20:24;;;;;;;2.35;0.73;;;24.40;49.50;;;;;;4173682;28;20057;-44
2022/10/14 09:23:04;;;;;;;1.55;0.90;;;24.30;49.50;;;;;;4164757;28;20048;-44
2022/10/14 09:25:27;;;;;;;0.82;0.57;;;24.30;49.30;;;;;;4173024;28;20086;-43
2022/10/14 09:27:50;;;;;;;2.17;0.90;;;24.30;49.00;;;;;;4172017;28;20037;-43
2022/10/14 09:31:04;;;;;;;1.15;0.98;;;24.30;49.20;;;;;;4182170;28;20040;-44
2022/10/14 09:33:27;;;;;;;1.00;0.80;;;24.30;49.60;;;;;;4170320;28;20531;-49
2022/10/14 09:35:50;;;;;;;1.00;0.70;;;24.20;49.60;;;;;;4170430;28;20538;-49
2022/10/14 09:38:14;;;;;;;1.77;0.98;;;24.20;49.60;;;;;;4176204;28;20040;-44
2022/10/14 09:40:43;;;;;;;;;;;24.20;49.70;;;;;;4169081;28;20040;-47
2022/10/14 09:43:17;;;;;;;1.25;0.73;;;24.20;49.80;;;;;;4167184;28;19920;-49
2022/10/14 09:45:58;;;;;;;2.13;1.00;;;24.20;49.40;;;;;;4162827;28;20033;-44
2022/10/14 09:48:50;;;;;;;0.95;0.80;;;24.20;49.70;;;;;;4164163;28;20044;-44
2022/10/14 09:51:33;;;;;;;1.42;0.50;;;24.20;49.80;;;;;;4177662;28;20044;-44
2022/10/14 09:53:58;;;;;;;2.17;0.90;;;24.10;49.40;;;;;;4168065;28;20052;-44
2022/10/14 09:56:41;;;;;;;0.68;0.50;;;24.10;49.50;;;;;;4168288;28;20060;-47
2022/10/14 09:59:14;;;;;;;0.68;0.60;;;24.10;49.70;;;;;;4168681;28;20405;-47
2022/10/14 10:01:47;;;;;;;1.77;0.80;;;24.10;49.80;;;;;;4161210;28;20033;-45
2022/10/14 10:04:31;;;;;;;0.80;0.45;;;24.10;49.80;;;;;;4164839;28;20493;-48
2022/10/14 10:06:55;;;;;;;1.80;0.90;;;24.00;49.80;;;;;;4168500;28;20041;-45
2022/10/14 10:09:19;;;;;;;1.17;0.70;;;24.00;49.90;;;;;;4171994;28;20140;-44
2022/10/14 10:11:42;;;;;;;0.73;0.60;;;24.00;49.80;;;;;;4173386;28;20053;-48
2022/10/14 10:14:23;;;;;;;0.95;0.57;;;24.00;50.00;;;;;;4165262;28;20087;-45
2022/10/14 10:16:45;;;;;;;1.15;0.60;;;23.90;49.80;;;;;;4166031;28;20477;-47
2022/10/14 10:19:29;;;;;;;1.45;0.60;;;23.90;49.70;;;;;;4170649;28;20071;-44
2022/10/14 10:21:52;;;;;;;1.33;0.80;;;23.90;49.50;;;;;;4162964;28;20084;-46
2022/10/14 10:24:21;;;;;;;0.50;0.50;;;23.90;50.00;;;;;;4166084;28;20076;-46
2022/10/14 10:26:43;;;;;;;1.48;0.82;;;23.90;50.10;;;;;;4162942;28;20488;-51
2022/10/14 10:29:06;;;;;;;1.60;0.63;;;23.90;50.10;;;;;;4165312;28;20419;-44
2022/10/14 10:31:49;;;;;;;0.60;0.50;;;23.80;50.10;;;;;;4166418;28;20514;-49
2022/10/14 10:34:42;;;;;;;0.63;0.50;;;23.80;50.00;;;;;;4165021;28;20465;-44
2022/10/14 10:37:15;;;;;;;1.17;0.70;;;23.80;50.20;;;;;;4170261;28;20294;-45
2022/10/14 10:39:56;;;;;;;1.23;0.60;;;23.80;50.10;;;;;;4163587;28;20501;-46
2022/10/14 10:42:27;;;;;;;0.88;0.50;;;23.80;50.10;;;;;;4166057;28;20033;-44
2022/10/14 10:45:15;;;;;;;1.33;0.93;;;23.80;50.90;;;;;;4172299;28;20049;-45
2022/10/14 10:47:45;;;;;;;1.17;0.70;;;23.80;50.20;;;;;;4167667;28;20036;-46
2022/10/14 10:50:16;;;;;;;0.93;0.50;;;23.70;50.00;;;;;;4166119;28;20041;-44
2022/10/14 10:53:02;;;;;;;0.65;0.45;;;23.70;50.30;;;;;;4173357;28;20037;-45
2022/10/14 10:55:57;;;;;;;1.25;0.60;;;23.70;50.40;;;;;;4174316;28;20040;-47
2022/10/14 10:58:26;;;;;;;1.37;0.73;;;23.70;50.30;;;;;;4178465;28;20040;-49
2022/10/14 11:01:13;;;;;;;0.80;0.60;;;23.70;50.20;;;;;;4171119;28;20293;-46
2022/10/14 11:03:41;;;;;;;1.00;0.60;;;23.60;51.00;;;;;;4176542;28;20057;-44
2022/10/14 11:12:15;;;;;;;1.55;0.90;;;23.60;50.70;;;;;;4167415;28;20037;-45
2022/10/14 11:15:01;;;;;;;0.50;0.50;;;23.60;50.60;;;;;;4170136;28;20032;-46
2022/10/14 11:17:44;;;;;;;0.65;0.40;;;23.60;50.90;;;;;;4170660;28;20394;-44
2022/10/14 11:20:26;;;;;;;0.88;0.60;;;23.60;50.90;;;;;;4164315;28;20037;-45
2022/10/14 11:23:03;;;;;;;1.30;0.90;;;23.60;51.10;;;;;;4170785;28;20059;-47
2022/10/14 11:25:56;;;;;;;0.95;0.70;;;23.50;51.00;;;;;;4173276;28;20186;-44
2022/10/14 11:28:48;;;;;;;1.15;0.70;;;23.50;51.00;;;;;;4177440;28;20044;-45
2022/10/14 11:31:16;;;;;;;2.05;0.73;;;23.50;51.10;;;;;;4161773;28;20037;-45
2022/10/14 11:33:44;;;;;;;0.70;0.60;;;23.50;51.90;;;;;;4167883;28;20033;-44
2022/10/14 11:36:32;;;;;;;1.13;0.50;;;23.40;51.10;;;;;;4161845;28;20038;-46
2022/10/14 11:39:04;;;;;;;0.80;0.50;;;23.40;51.40;;;;;;4180501;28;20041;-46
2022/10/14 11:41:47;;;;;;;1.63;0.63;;;23.40;51.10;;;;;;4170496;28;20579;-47
2022/10/14 11:44:23;;;;;;;0.82;0.55;;;23.40;51.50;;;;;;4169122;28;20044;-45
2022/10/14 11:46:52;;;;;;;1.58;0.50;;;23.40;51.40;;;;;;4168339;28;20493;-45
2022/10/14 11:49:29;;;;;;;0.70;0.70;;;23.40;51.40;;;;;;4167179;28;20045;-50
2022/10/14 11:52:16;;;;;;;2.17;0.70;;;23.40;51.50;;;;;;4173181;28;20033;-47
2022/10/14 11:54:52;;;;;;;1.00;0.65;;;23.30;51.40;;;;;;4166213;28;20492;-44
2022/10/14 11:57:26;;;;;;;1.25;0.70;;;23.30;51.40;;;;;;4165399;28;21093;-45
2022/10/14 12:00:14;;;;;;;0.98;0.75;;;23.30;51.30;;;;;;4161543;28;20061;-44
2022/10/14 12:02:42;;;;;;;0.82;0.60;;;23.30;51.40;;;;;;4168945;28;20057;-45
2022/10/14 12:06:00;;;;;;;1.90;0.70;;;23.30;51.40;;;;;;4178234;28;20497;-46
2022/10/14 12:08:34;;;;;;;1.20;0.77;;;23.30;51.50;;;;;;4180141;28;20055;-47
2022/10/14 12:11:12;;;;;;;0.82;0.60;;;23.30;51.10;;;;;;4167013;28;20048;-50
2022/10/14 12:13:46;;;;;;;0.70;0.70;;;23.30;51.70;;;;;;4167485;28;20045;-44
2022/10/14 12:16:18;;;;;;;1.17;0.85;;;23.20;51.30;;;;;;4165668;28;20070;-46
2022/10/14 12:18:43;;;;;;;1.13;0.77;;;23.20;51.30;;;;;;4167196;28;20476;-47
2022/10/14 12:21:40;;;;;;;0.90;0.80;;;23.20;51.20;;;;;;4170975;28;20547;-49
2022/10/14 12:24:16;;;;;;;1.10;0.73;;;23.20;51.60;;;;;;4169845;28;20049;-45
2022/10/14 12:27:05;;;;;;;1.30;0.80;;;23.10;51.60;;;;;;4176670;28;20037;-45
2022/10/14 12:29:34;;;;;;;2.10;1.17;;;23.10;51.60;;;;;;4169818;28;20049;-45
2022/10/14 12:32:08;;;;;;;1.88;0.95;;;23.10;51.40;;;;;;4169002;28;20405;-49
2022/10/14 12:34:39;;;;;;;1.42;0.88;;;23.10;51.30;;;;;;4171327;28;20056;-47
2022/10/14 12:37:24;;;;;;;1.55;0.90;;;23.10;51.60;;;;;;4168989;28;20029;-46
2022/10/14 12:39:46;;;;;;;1.92;1.13;;;23.10;51.70;;;;;;4163492;28;20187;-45
2022/10/14 12:42:14;;;;;;;1.42;0.80;;;23.10;51.80;;;;;;4162596;28;20036;-45
2022/10/14 12:44:47;;;;;;;0.90;0.70;;;23.10;51.80;;;;;;4167584;28;20040;-45
2022/10/14 12:47:35;;;;;;;4.93;1.30;;;23.00;51.50;;;;;;4171243;28;20040;-45
2022/10/14 12:50:19;;;;;;;1.75;1.10;;;23.00;51.60;;;;;;4163861;28;20118;-49
2022/10/14 12:52:47;;;;;;;6.75;1.45;;;23.00;51.70;;;;;;4168116;28;20607;-50
2022/10/14 12:55:19;;;;;;;6.38;1.23;;;23.00;52.10;;;;;;4172206;28;20048;-50
2022/10/14 12:57:42;;;;;;;3.38;1.00;;;23.00;52.20;;;;;;4162980;28;20456;-46
2022/10/14 13:00:23;;;;;;;4.95;1.15;;;23.10;52.40;;;;;;4170432;28;20428;-50
2022/10/14 13:02:47;;;;;;;4.30;1.17;;;23.00;52.50;;;;;;4168486;28;20047;-48
2022/10/14 13:05:31;;;;;;;3.05;1.02;;;23.10;52.80;;;;;;4169179;28;20519;-44
2022/10/14 13:08:18;;;;;;;5.07;1.33;;;23.10;52.80;;;;;;4167080;28;20029;-48
2022/10/14 13:11:08;;;;;;;4.00;1.23;;;23.10;52.90;;;;;;4170262;28;20039;-48
2022/10/14 13:13:40;;;;;;;2.10;1.23;;;23.00;53.10;;;;;;4161553;28;20477;-45
2022/10/14 13:16:03;;;;;;;3.67;1.33;;;23.00;53.10;;;;;;4170069;28;20033;-46
2022/10/14 13:18:34;;;;;;;1.55;0.90;;;23.00;53.20;;;;;;4172700;28;20103;-45
2022/10/14 13:20:57;;;;;;;4.57;1.38;;;23.00;53.40;;;;;;4161296;28;20041;-46
2022/10/14 13:23:34;;;;;;;3.60;1.00;;;23.00;53.40;;;;;;4160314;28;20033;-45
2022/10/14 13:26:21;;;;;;;2.90;1.33;;;23.00;53.40;;;;;;4164769;28;20045;-48
2022/10/14 13:28:58;;;;;;;3.42;1.05;;;23.00;53.60;;;;;;4168092;28;20068;-50
2022/10/14 13:31:46;;;;;;;2.15;1.30;;;23.00;53.60;;;;;;4167929;28;20033;-48
2022/10/14 13:34:39;;;;;;;2.05;1.27;;;23.00;53.70;;;;;;4163446;28;20085;-50
2022/10/14 13:37:36;;;;;;;4.07;1.48;;;23.00;53.90;;;;;;4165344;28;20072;-46
2022/10/14 13:40:14;;;;;;;11.38;1.42;;;23.00;53.90;;;;;;4165295;28;20175;-51
2022/10/14 13:42:38;;;;;;;5.53;1.55;;;23.00;53.90;;;;;;4167415;28;20417;-48
2022/10/14 13:45:12;;;;;;;5.72;1.35;;;23.00;54.00;;;;;;4166849;28;20047;-47
2022/10/14 13:47:36;;;;;;;5.82;1.33;;;23.00;54.20;;;;;;4167730;28;20029;-47
2022/10/14 13:49:58;;;;;;;5.93;1.50;;;23.00;54.00;;;;;;4171054;28;20037;-45
2022/10/14 13:52:24;;;;;;;2.75;0.90;;;23.00;54.30;;;;;;4167967;28;20560;-49
2022/10/14 13:54:47;;;;;;;4.45;1.55;;;23.00;54.30;;;;;;4169831;28;20045;-46
2022/10/14 13:57:12;;;;;;;5.38;1.55;;;23.00;54.10;;;;;;4168733;28;20072;-48
2022/10/14 13:59:53;;;;;;;2.47;1.40;;;22.90;54.20;;;;;;4177471;28;20063;-46
2022/10/14 14:02:19;;;;;;;2.08;1.10;;;22.90;54.00;;;;;;4168484;28;20079;-46
2022/10/14 14:04:50;;;;;;;3.17;1.45;;;22.90;54.10;;;;;;4175583;28;20131;-46
2022/10/14 14:07:17;;;;;;;4.57;1.45;;;22.90;54.10;;;;;;4171661;28;20091;-47
2022/10/14 14:09:40;;;;;;;2.13;1.10;;;22.80;54.40;;;;;;4178350;28;20051;-47
2022/10/14 14:12:05;;;;;;;4.88;1.80;;;22.80;54.30;;;;;;4167400;28;20033;-46
2022/10/14 14:14:43;;;;;;;1.90;1.13;;;22.80;54.30;;;;;;4179294;28;20064;-46
2022/10/14 14:17:21;;;;;;;3.40;1.23;;;22.80;54.40;;;;;;4173948;28;20487;-48
2022/10/14 14:19:46;;;;;;;2.00;1.20;;;22.70;54.10;;;;;;4167769;28;20033;-46
2022/10/14 14:22:28;;;;;;;2.13;1.10;;;22.70;54.20;;;;;;4179289;28;20555;-50
2022/10/14 14:24:51;;;;;;;4.30;1.65;;;22.70;54.30;;;;;;4182561;28;20056;-49
2022/10/14 14:27:22;;;;;;;2.70;1.27;;;22.70;54.40;;;;;;4173812;28;20037;-49
2022/10/14 14:29:47;;;;;;;1.65;1.13;;;22.70;54.40;;;;;;4167102;28;20691;-47
2022/10/14 14:32:24;;;;;;;3.33;1.40;;;22.70;54.40;;;;;;4168986;28;20048;-48
2022/10/14 14:34:49;;;;;;;1.60;1.08;;;22.70;54.30;;;;;;4165017;28;20041;-50
2022/10/14 14:37:25;;;;;;;2.42;1.20;;;22.60;54.50;;;;;;4169771;28;20104;-49
2022/10/14 14:40:03;;;;;;;3.65;1.35;;;22.60;54.50;;;;;;4169370;28;20418;-52
2022/10/14 14:42:30;;;;;;;7.35;1.48;;;22.60;54.80;;;;;;4168111;28;20050;-50
2022/10/14 14:45:00;;;;;;;3.58;1.65;;;22.60;55.00;;;;;;4177862;28;20059;-50
2022/10/14 14:47:25;;;;;;;2.55;1.33;;;22.60;55.00;;;;;;4169932;28;20551;-49
2022/10/14 14:49:49;;;;;;;1.75;1.08;;;22.60;55.10;;;;;;4172756;28;20052;-49
2022/10/14 14:52:13;;;;;;;3.20;1.75;;;22.60;55.20;;;;;;4181158;28;20048;-48
2022/10/14 14:54:44;;;;;;;3.55;1.58;;;22.60;55.20;;;;;;4181305;28;20123;-48
2022/10/14 14:57:09;;;;;;;3.13;1.30;;;22.60;55.10;;;;;;4173040;28;20033;-47
2022/10/14 14:59:47;;;;;;;4.32;1.25;;;22.60;55.10;;;;;;4177962;28;20064;-51
2022/10/14 15:02:20;;;;;;;2.47;1.27;;;22.60;55.10;;;;;;4171588;28;20444;-52
2022/10/14 15:04:43;;;;;;;2.13;1.40;;;22.60;55.10;;;;;;4176443;28;20161;-53
2022/10/14 15:07:11;;;;;;;1.57;1.00;;;22.50;55.00;;;;;;4179503;28;20087;-50
2022/10/14 15:09:45;;;;;;;2.08;1.30;;;22.50;55.10;;;;;;4182963;28;20545;-54
2022/10/14 15:12:15;;;;;;;3.70;1.23;;;22.50;55.10;;;;;;4176836;28;20116;-46
2022/10/14 15:14:52;;;;;;;4.65;1.48;;;22.50;55.20;;;;;;4181323;28;20047;-48
2022/10/14 15:17:34;;;;;;;2.40;1.05;;;22.50;55.30;;;;;;4179954;28;20404;-50
2022/10/14 15:19:59;;;;;;;3.17;1.35;;;22.40;55.00;;;;;;4176197;28;20033;-48
2022/10/14 15:22:25;;;;;;;2.50;1.30;;;22.40;55.00;;;;;;4164601;28;20378;-51
2022/10/14 15:25:01;;;;;;;2.08;1.17;;;22.40;55.30;;;;;;4160297;28;20049;-48
2022/10/14 15:27:36;;;;;;;3.15;1.05;;;22.40;55.30;;;;;;4164354;28;20033;-49
2022/10/14 15:30:30;;;;;;;;;;;22.40;55.60;;;;;;4168522;28;20043;-47
2022/10/14 15:32:57;;;;;;;1.67;1.05;;;22.40;55.10;;;;;;4166254;28;19965;-44
2022/10/14 15:35:22;;;;;;;2.72;1.25;;;22.30;55.30;;;;;;4167480;28;20630;-49
2022/10/14 15:37:45;;;;;;;2.15;1.20;;;22.30;55.70;;;;;;4167623;28;20459;-46
2022/10/14 15:40:14;;;;;;;1.15;0.95;;;22.30;55.50;;;;;;4174992;28;20041;-47
2022/10/14 15:42:36;;;;;;;2.83;1.45;;;22.30;55.40;;;;;;4169228;28;20060;-47
2022/10/14 15:44:59;;;;;;;1.65;1.02;;;22.30;55.60;;;;;;4176099;28;20044;-49
2022/10/14 15:47:22;;;;;;;3.78;1.23;;;22.30;55.50;;;;;;4168123;28;20107;-51
2022/10/14 15:49:45;;;;;;;1.55;1.13;;;22.30;55.60;;;;;;4176052;28;20079;-48
2022/10/14 15:52:13;;;;;;;5.13;1.35;;;22.30;55.90;;;;;;4178921;28;20159;-48
2022/10/14 15:54:35;;;;;;;2.30;0.90;;;22.30;55.70;;;;;;4173567;28;20038;-51
2022/10/14 15:56:58;;;;;;;2.22;1.08;;;22.20;55.70;;;;;;4172366;28;20033;-47
2022/10/14 15:59:24;;;;;;;3.53;1.30;;;22.20;55.80;;;;;;4174202;28;20034;-47
2022/10/14 16:01:47;;;;;;;3.25;1.23;;;22.20;55.70;;;;;;4172616;28;20048;-49
2022/10/14 16:04:21;;;;;;;1.93;1.00;;;22.20;55.50;;;;;;4173377;28;20088;-47
2022/10/14 16:06:43;;;;;;;3.90;1.13;;;22.20;55.50;;;;;;4174408;28;20090;-50